Time;durP1;ratioP1;P1;durP2;ratioP2;P2;SDS_P1;SDS_P2;PMS_P1;PMS_P2;Temp;Humidity;BMP_temperature;BMP_pressure;BME280_temperature;BME280_humidity;BME280_pressure;Samples;Min_cycle;Max_cycle;Signal;HPM_P1;HPM_P2
2024/03/09 00:00:48;;;;;;;36.35;20.30;;;;;;;;;;5034847;28;20095;-81
2024/03/09 00:03:16;;;;;;;37.30;20.75;;;;;;;;;;5027245;28;20053;-81
2024/03/09 00:05:43;;;;;;;34.55;19.00;;;;;;;;;;5018398;28;20096;-81
2024/03/09 00:08:11;;;;;;;37.38;19.40;;;;;;;;;;5025219;28;20053;-81
2024/03/09 00:10:39;;;;;;;40.00;19.60;;;;;;;;;;5025467;28;20045;-81
2024/03/09 00:13:10;;;;;;;38.05;19.83;;;;;;;;;;5032581;28;20056;-81
2024/03/09 00:15:41;;;;;;;39.47;19.85;;;;;;;;;;5025201;28;20088;-81
2024/03/09 00:18:09;;;;;;;33.30;19.13;;;;;;;;;;5027567;28;20052;-81
2024/03/09 00:20:36;;;;;;;36.08;19.58;;;;;;;;;;5027846;28;20387;-82
2024/03/09 00:23:04;;;;;;;37.80;19.88;;;;;;;;;;5036019;28;20061;-82
2024/03/09 00:25:37;;;;;;;39.75;20.08;;;;;;;;;;5027973;28;20049;-82
2024/03/09 00:28:05;;;;;;;35.25;18.73;;;;;;;;;;5031029;28;20171;-82
2024/03/09 00:30:34;;;;;;;39.50;19.88;;;;;;;;;;5027342;28;20088;-82
2024/03/09 00:33:05;;;;;;;35.92;18.65;;;;;;;;;;5027275;28;20045;-82
2024/03/09 00:35:34;;;;;;;36.22;19.20;;;;;;;;;;5026553;28;20140;-82
2024/03/09 00:38:03;;;;;;;34.67;18.30;;;;;;;;;;5023560;28;20077;-81
2024/03/09 00:40:31;;;;;;;36.40;19.25;;;;;;;;;;5023579;28;20041;-81
2024/03/09 00:43:05;;;;;;;37.33;19.30;;;;;;;;;;5024723;28;20148;-81
2024/03/09 00:45:33;;;;;;;38.45;18.98;;;;;;;;;;5031413;28;20096;-81
2024/03/09 00:48:03;;;;;;;33.15;17.95;;;;;;;;;;5026931;28;20069;-81
2024/03/09 00:50:31;;;;;;;39.80;19.60;;;;;;;;;;5027188;28;20060;-81
2024/03/09 00:52:58;;;;;;;36.38;17.85;;;;;;;;;;5026930;28;20498;-81
2024/03/09 00:55:26;;;;;;;35.53;19.00;;;;;;;;;;5027333;28;20112;-81
2024/03/09 00:57:55;;;;;;;33.28;17.63;;;;;;;;;;5031108;28;20490;-81
2024/03/09 01:00:23;;;;;;;36.03;18.85;;;;;;;;;;5023070;28;20491;-82
2024/03/09 01:02:52;;;;;;;35.50;18.65;;;;;;;;;;5031262;28;20462;-81
2024/03/09 01:05:21;;;;;;;38.35;19.48;;;;;;;;;;5022827;28;20129;-81
2024/03/09 01:07:49;;;;;;;36.47;19.35;;;;;;;;;;5024920;28;20056;-81
2024/03/09 01:10:17;;;;;;;35.40;17.95;;;;;;;;;;5034275;28;20517;-81
2024/03/09 01:12:44;;;;;;;34.15;18.77;;;;;;;;;;5025758;28;20049;-81
2024/03/09 01:15:13;;;;;;;35.10;18.30;;;;;;;;;;5021832;28;20050;-81
2024/03/09 01:17:41;;;;;;;29.65;16.67;;;;;;;;;;5022822;28;20092;-81
2024/03/09 01:20:09;;;;;;;32.83;16.75;;;;;;;;;;5025165;28;20465;-81
2024/03/09 01:22:37;;;;;;;35.35;17.92;;;;;;;;;;5032380;28;20084;-81
2024/03/09 01:27:37;;;;;;;32.90;17.98;;;;;;;;;;4996602;28;20042;-83
2024/03/09 01:30:05;;;;;;;35.47;18.90;;;;;;;;;;5014126;28;20046;-83
2024/03/09 01:32:33;;;;;;;31.85;17.08;;;;;;;;;;5015089;28;20050;-83
2024/03/09 01:35:01;;;;;;;31.58;17.67;;;;;;;;;;5034211;28;20042;-82
2024/03/09 01:37:29;;;;;;;32.30;17.90;;;;;;;;;;5018383;28;20049;-83
2024/03/09 01:39:56;;;;;;;31.50;17.38;;;;;;;;;;5060264;22;20053;-82
2024/03/09 01:42:24;;;;;;;33.40;16.92;;;;;;;;;;5029652;28;20046;-82
2024/03/09 01:44:52;;;;;;;31.90;16.88;;;;;;;;;;5034155;28;20124;-82
2024/03/09 01:47:22;;;;;;;36.00;17.88;;;;;;;;;;5019777;28;20514;-82
2024/03/09 01:49:53;;;;;;;31.50;16.98;;;;;;;;;;5014928;28;20115;-82
2024/03/09 01:52:22;;;;;;;31.80;16.25;;;;;;;;;;5024576;28;20057;-82
2024/03/09 01:54:53;;;;;;;30.50;16.60;;;;;;;;;;5026934;28;20066;-82
2024/03/09 01:57:20;;;;;;;33.78;18.08;;;;;;;;;;5022995;28;20054;-82
2024/03/09 01:59:49;;;;;;;38.63;19.20;;;;;;;;;;5016483;28;20057;-82
2024/03/09 02:02:17;;;;;;;35.97;18.35;;;;;;;;;;5024153;28;20077;-82
2024/03/09 02:04:44;;;;;;;31.20;17.90;;;;;;;;;;5025948;28;20041;-82
2024/03/09 02:07:16;;;;;;;34.90;17.80;;;;;;;;;;5027767;28;20045;-82
2024/03/09 02:09:43;;;;;;;35.85;18.15;;;;;;;;;;5026246;28;20081;-82
2024/03/09 02:12:11;;;;;;;35.28;16.52;;;;;;;;;;5019075;28;20057;-82
2024/03/09 02:14:38;;;;;;;34.75;16.63;;;;;;;;;;5021828;28;20057;-82
2024/03/09 02:17:08;;;;;;;33.25;17.17;;;;;;;;;;5018666;28;20058;-82
2024/03/09 02:19:36;;;;;;;37.08;18.08;;;;;;;;;;5021372;28;20469;-82
2024/03/09 02:22:04;;;;;;;32.88;17.25;;;;;;;;;;5028440;28;20486;-82
2024/03/09 02:24:34;;;;;;;33.78;17.45;;;;;;;;;;5027374;28;20461;-82
2024/03/09 02:27:01;;;;;;;32.25;17.00;;;;;;;;;;5017545;28;20077;-82
2024/03/09 02:29:29;;;;;;;35.50;17.50;;;;;;;;;;5024013;28;20065;-82
2024/03/09 02:31:57;;;;;;;32.45;17.00;;;;;;;;;;5015566;28;20073;-82
2024/03/09 02:34:25;;;;;;;29.70;16.10;;;;;;;;;;5023805;28;20045;-82
2024/03/09 02:36:53;;;;;;;31.90;16.63;;;;;;;;;;4996028;28;20081;-82
2024/03/09 02:39:23;;;;;;;32.80;16.55;;;;;;;;;;5032279;22;20414;-81
2024/03/09 02:41:50;;;;;;;36.97;18.35;;;;;;;;;;5049324;28;20041;-81
2024/03/09 02:44:18;;;;;;;26.85;14.98;;;;;;;;;;5030447;28;20096;-81
2024/03/09 02:46:45;;;;;;;32.05;16.50;;;;;;;;;;5014362;28;20057;-81
2024/03/09 02:49:12;;;;;;;32.92;17.17;;;;;;;;;;5013348;28;20060;-81
2024/03/09 02:51:39;;;;;;;29.80;15.57;;;;;;;;;;5013080;28;20053;-80
2024/03/09 02:54:07;;;;;;;34.78;16.10;;;;;;;;;;5013071;28;20046;-81
2024/03/09 02:56:34;;;;;;;32.13;17.15;;;;;;;;;;5013155;28;20050;-81
2024/03/09 02:59:01;;;;;;;36.47;17.60;;;;;;;;;;5012753;28;20494;-81
2024/03/09 03:01:29;;;;;;;34.17;16.48;;;;;;;;;;5013070;28;20396;-81
2024/03/09 03:04:01;;;;;;;33.72;16.45;;;;;;;;;;5012969;28;20125;-81
2024/03/09 03:06:28;;;;;;;36.47;17.55;;;;;;;;;;5013227;28;20073;-81
2024/03/09 03:09:01;;;;;;;35.97;16.83;;;;;;;;;;5013229;28;20108;-81
2024/03/09 03:11:28;;;;;;;32.30;16.27;;;;;;;;;;5013406;28;20058;-81
2024/03/09 03:13:56;;;;;;;28.77;16.38;;;;;;;;;;5013493;28;20054;-81
2024/03/09 03:16:28;;;;;;;34.67;16.13;;;;;;;;;;5017031;28;20061;-81
2024/03/09 03:18:59;;;;;;;30.50;15.57;;;;;;;;;;5017202;28;20065;-81
2024/03/09 03:21:27;;;;;;;30.35;15.60;;;;;;;;;;5017730;28;20046;-81
2024/03/09 03:23:54;;;;;;;34.45;16.45;;;;;;;;;;5017379;28;20157;-81
2024/03/09 03:26:22;;;;;;;35.63;16.15;;;;;;;;;;5018211;28;20050;-81
2024/03/09 03:28:50;;;;;;;31.05;15.20;;;;;;;;;;5018875;28;20086;-81
2024/03/09 03:31:18;;;;;;;27.88;14.50;;;;;;;;;;5014693;28;20065;-81
2024/03/09 03:33:46;;;;;;;29.13;14.45;;;;;;;;;;5024590;28;20054;-82
2024/03/09 03:36:17;;;;;;;31.88;15.05;;;;;;;;;;5020243;28;20050;-80
2024/03/09 03:38:46;;;;;;;31.35;15.65;;;;;;;;;;5015820;28;20115;-80
2024/03/09 03:41:14;;;;;;;34.85;15.98;;;;;;;;;;5016132;28;20053;-80
2024/03/09 03:43:45;;;;;;;32.28;15.43;;;;;;;;;;5015789;28;20045;-80
2024/03/09 03:46:14;;;;;;;33.17;16.70;;;;;;;;;;5016004;28;20045;-80
2024/03/09 03:48:44;;;;;;;33.17;16.60;;;;;;;;;;5015721;28;20451;-80
2024/03/09 03:51:13;;;;;;;36.50;17.60;;;;;;;;;;5015917;28;20054;-82
2024/03/09 03:53:41;;;;;;;34.65;16.15;;;;;;;;;;5015967;28;20054;-80
2024/03/09 03:56:09;;;;;;;35.35;16.42;;;;;;;;;;5016052;28;20057;-80
2024/03/09 03:58:37;;;;;;;29.65;15.07;;;;;;;;;;5015578;28;20416;-80
2024/03/09 04:01:05;;;;;;;32.70;15.88;;;;;;;;;;5016082;28;20042;-80
2024/03/09 04:03:37;;;;;;;31.25;15.60;;;;;;;;;;5015736;28;20069;-80
2024/03/09 04:06:04;;;;;;;31.38;15.98;;;;;;;;;;5017188;28;20080;-80
2024/03/09 04:08:32;;;;;;;33.47;16.40;;;;;;;;;;5016556;28;20053;-80
2024/03/09 04:11:00;;;;;;;30.08;15.00;;;;;;;;;;5007881;28;20411;-80
2024/03/09 04:13:27;;;;;;;30.48;15.55;;;;;;;;;;5015968;28;20046;-80
2024/03/09 04:15:55;;;;;;;28.77;14.23;;;;;;;;;;5015743;28;20559;-80
2024/03/09 04:18:26;;;;;;;25.50;14.20;;;;;;;;;;5015681;28;20046;-81
2024/03/09 04:20:55;;;;;;;26.73;14.02;;;;;;;;;;5017047;28;20069;-80
2024/03/09 04:23:23;;;;;;;27.92;13.35;;;;;;;;;;5015968;28;20050;-80
2024/03/09 04:25:51;;;;;;;27.13;13.65;;;;;;;;;;5015838;28;20483;-80
2024/03/09 04:28:27;;;;;;;25.73;13.82;;;;;;;;;;5017272;28;20057;-81
2024/03/09 04:30:58;;;;;;;26.00;13.43;;;;;;;;;;5015796;28;20516;-80
2024/03/09 04:33:25;;;;;;;32.97;15.07;;;;;;;;;;5015968;28;20115;-80
2024/03/09 04:35:53;;;;;;;29.90;15.10;;;;;;;;;;5015882;28;20066;-80
2024/03/09 04:38:21;;;;;;;27.13;15.40;;;;;;;;;;5015596;28;20549;-80
2024/03/09 04:40:51;;;;;;;25.13;14.23;;;;;;;;;;5016992;28;20056;-81
2024/03/09 04:43:19;;;;;;;28.02;14.95;;;;;;;;;;5015890;28;20046;-80
2024/03/09 04:45:50;;;;;;;26.90;14.43;;;;;;;;;;5016354;28;20096;-81
2024/03/09 04:48:18;;;;;;;30.60;15.10;;;;;;;;;;5016456;28;20511;-81
2024/03/09 04:50:46;;;;;;;26.65;14.48;;;;;;;;;;5017053;28;20272;-81
2024/03/09 04:53:16;;;;;;;29.00;15.50;;;;;;;;;;5017629;28;20161;-80
2024/03/09 04:55:48;;;;;;;30.45;14.98;;;;;;;;;;5014196;28;20450;-79
2024/03/09 04:58:21;;;;;;;29.58;14.45;;;;;;;;;;5014111;28;20075;-80
2024/03/09 05:00:49;;;;;;;24.70;13.83;;;;;;;;;;5014383;28;20275;-80
2024/03/09 05:03:17;;;;;;;25.13;13.20;;;;;;;;;;5015412;28;20100;-79
2024/03/09 05:05:45;;;;;;;25.80;14.00;;;;;;;;;;5032084;22;20046;-86
2024/03/09 05:08:13;;;;;;;31.80;14.73;;;;;;;;;;5052772;28;20106;-86
2024/03/09 05:10:41;;;;;;;27.65;14.40;;;;;;;;;;5054209;28;20064;-86
2024/03/09 05:13:09;;;;;;;27.60;13.65;;;;;;;;;;5069819;28;20045;-85
2024/03/09 05:15:37;;;;;;;29.98;15.20;;;;;;;;;;5044980;28;20056;-86
2024/03/09 05:18:10;;;;;;;27.05;13.18;;;;;;;;;;5054260;28;20171;-86
2024/03/09 05:20:39;;;;;;;28.25;14.43;;;;;;;;;;5069688;28;20564;-86
2024/03/09 05:23:10;;;;;;;26.75;14.73;;;;;;;;;;5069671;28;20065;-86
2024/03/09 05:25:42;;;;;;;26.02;13.85;;;;;;;;;;5053129;28;20489;-86
2024/03/09 05:28:12;;;;;;;28.55;13.93;;;;;;;;;;5069891;28;20045;-86
2024/03/09 05:30:41;;;;;;;27.40;14.18;;;;;;;;;;5060885;28;20053;-85
2024/03/09 05:33:11;;;;;;;25.52;13.70;;;;;;;;;;5053926;28;20103;-86
2024/03/09 05:35:39;;;;;;;32.05;14.60;;;;;;;;;;5052780;28;20448;-86
2024/03/09 05:38:08;;;;;;;28.45;15.25;;;;;;;;;;5053248;28;20414;-86
2024/03/09 05:40:37;;;;;;;26.85;13.77;;;;;;;;;;5067964;28;20501;-86
2024/03/09 05:43:07;;;;;;;30.05;15.15;;;;;;;;;;5052821;28;20400;-86
2024/03/09 05:45:39;;;;;;;36.30;18.38;;;;;;;;;;5069162;28;20048;-86
2024/03/09 05:48:08;;;;;;;31.80;16.65;;;;;;;;;;5053903;28;20057;-86
2024/03/09 05:50:37;;;;;;;29.02;15.18;;;;;;;;;;5068884;28;20057;-86
2024/03/09 05:53:06;;;;;;;30.70;15.27;;;;;;;;;;5068964;28;20044;-86
2024/03/09 05:55:34;;;;;;;28.70;14.73;;;;;;;;;;5069185;28;20048;-86
2024/03/09 05:58:02;;;;;;;28.80;14.25;;;;;;;;;;5053550;28;20382;-86
2024/03/09 06:00:31;;;;;;;34.38;15.27;;;;;;;;;;5052457;28;20111;-86
2024/03/09 06:03:03;;;;;;;25.85;14.30;;;;;;;;;;5045462;28;20102;-86
2024/03/09 06:05:31;;;;;;;30.27;15.15;;;;;;;;;;5053493;28;20075;-86
2024/03/09 06:08:01;;;;;;;34.13;16.35;;;;;;;;;;5045142;28;20053;-86
2024/03/09 06:10:29;;;;;;;26.10;14.30;;;;;;;;;;5068740;28;20044;-86
2024/03/09 06:12:56;;;;;;;31.25;15.00;;;;;;;;;;5068901;28;20049;-86
2024/03/09 06:15:24;;;;;;;27.13;15.10;;;;;;;;;;5068985;28;20049;-86
2024/03/09 06:17:58;;;;;;;31.27;15.75;;;;;;;;;;5068958;28;20053;-86
2024/03/09 06:20:26;;;;;;;31.00;16.05;;;;;;;;;;5068753;28;20106;-86
2024/03/09 06:22:56;;;;;;;32.15;14.93;;;;;;;;;;5068584;28;20057;-86
2024/03/09 06:25:25;;;;;;;29.70;16.10;;;;;;;;;;5068669;28;20044;-86
2024/03/09 06:27:54;;;;;;;35.78;17.25;;;;;;;;;;5052266;28;20061;-86
2024/03/09 06:30:23;;;;;;;31.40;16.85;;;;;;;;;;5068645;28;20045;-86
2024/03/09 06:32:57;;;;;;;36.88;17.25;;;;;;;;;;5067929;28;20052;-86
2024/03/09 06:35:25;;;;;;;34.85;16.73;;;;;;;;;;5052927;28;20045;-86
2024/03/09 06:38:07;;;;;;;36.33;17.50;;;;;;;;;;5068457;28;20128;-86
2024/03/09 06:40:36;;;;;;;32.10;15.90;;;;;;;;;;5052451;28;20079;-86
2024/03/09 06:43:05;;;;;;;32.95;16.13;;;;;;;;;;5068550;28;20292;-86
2024/03/09 06:45:32;;;;;;;31.85;16.67;;;;;;;;;;5052031;28;20056;-85
2024/03/09 06:48:00;;;;;;;39.70;18.95;;;;;;;;;;5052874;28;20107;-86
2024/03/09 06:50:28;;;;;;;32.78;17.27;;;;;;;;;;5070898;28;20436;-86
2024/03/09 06:52:56;;;;;;;31.77;17.55;;;;;;;;;;5057330;28;20080;-86
2024/03/09 06:55:25;;;;;;;33.13;18.35;;;;;;;;;;5072755;28;20080;-86
2024/03/09 06:57:53;;;;;;;36.85;18.17;;;;;;;;;;5072483;28;20084;-86
2024/03/09 07:00:21;;;;;;;35.80;18.15;;;;;;;;;;5072174;28;20051;-86
2024/03/09 07:02:49;;;;;;;31.10;17.13;;;;;;;;;;5056664;28;20132;-85
2024/03/09 07:05:17;;;;;;;31.90;17.85;;;;;;;;;;5056654;28;20111;-86
2024/03/09 07:07:45;;;;;;;33.65;17.42;;;;;;;;;;5055418;28;20053;-85
2024/03/09 07:10:12;;;;;;;32.08;17.08;;;;;;;;;;5056663;28;20490;-86
2024/03/09 07:12:40;;;;;;;36.38;18.70;;;;;;;;;;5072227;28;20060;-85
2024/03/09 07:15:15;;;;;;;32.85;18.77;;;;;;;;;;5056455;28;20045;-86
2024/03/09 07:17:44;;;;;;;45.60;24.15;;;;;;;;;;5056590;28;20049;-86
2024/03/09 07:20:12;;;;;;;30.50;17.48;;;;;;;;;;5071524;28;20048;-86
2024/03/09 07:22:40;;;;;;;34.15;18.35;;;;;;;;;;5056145;28;20053;-85
2024/03/09 07:25:13;;;;;;;29.65;16.67;;;;;;;;;;5056652;28;20444;-86
2024/03/09 07:27:41;;;;;;;26.52;15.10;;;;;;;;;;5071654;28;20048;-85
2024/03/09 07:30:10;;;;;;;30.85;16.08;;;;;;;;;;5071851;28;20048;-86
2024/03/09 07:32:38;;;;;;;27.67;16.23;;;;;;;;;;5071648;28;20080;-86
2024/03/09 07:35:14;;;;;;;29.38;16.50;;;;;;;;;;5071692;28;20123;-86
2024/03/09 07:37:52;;;;;;;29.90;16.00;;;;;;;;;;5071458;28;20049;-86
2024/03/09 07:40:26;;;;;;;24.35;14.05;;;;;;;;;;5055410;28;20140;-85
2024/03/09 07:42:54;;;;;;;27.30;16.95;;;;;;;;;;5055871;28;20139;-86
2024/03/09 07:45:22;;;;;;;30.10;16.15;;;;;;;;;;5071303;28;20564;-86
2024/03/09 07:47:50;;;;;;;32.83;19.13;;;;;;;;;;5071424;28;20057;-86
2024/03/09 07:50:20;;;;;;;28.50;17.50;;;;;;;;;;5071396;28;20135;-86
2024/03/09 07:52:52;;;;;;;27.10;16.67;;;;;;;;;;5054998;28;20049;-86
2024/03/09 07:55:20;;;;;;;19.88;11.73;;;;;;;;;;5071501;28;20087;-86
2024/03/09 07:57:48;;;;;;;14.32;10.05;;;;;;;;;;5054757;28;20081;-86
2024/03/09 08:00:17;;;;;;;14.35;9.60;;;;;;;;;;5055738;28;20092;-86
2024/03/09 08:02:46;;;;;;;11.60;8.73;;;;;;;;;;5070549;28;20076;-85
2024/03/09 08:05:15;;;;;;;10.40;7.65;;;;;;;;;;5055568;28;20049;-86
2024/03/09 08:07:43;;;;;;;10.07;7.50;;;;;;;;;;5055230;28;20049;-85
2024/03/09 08:10:13;;;;;;;9.35;7.28;;;;;;;;;;5055202;28;20503;-86
2024/03/09 08:12:40;;;;;;;9.50;7.35;;;;;;;;;;5055607;28;20052;-86
2024/03/09 08:15:08;;;;;;;10.55;7.32;;;;;;;;;;5071031;28;20080;-85
2024/03/09 08:17:35;;;;;;;9.15;6.70;;;;;;;;;;5070655;28;20048;-85
2024/03/09 08:20:06;;;;;;;7.18;5.85;;;;;;;;;;5070749;28;20128;-85
2024/03/09 08:22:34;;;;;;;8.38;7.25;;;;;;;;;;5054823;28;20045;-84
2024/03/09 08:25:06;;;;;;;9.05;6.57;;;;;;;;;;5054226;28;20513;-85
2024/03/09 08:27:38;;;;;;;7.72;6.18;;;;;;;;;;5054968;28;20475;-85
2024/03/09 08:30:06;;;;;;;7.45;5.90;;;;;;;;;;5070489;28;20126;-85
2024/03/09 08:32:36;;;;;;;7.72;5.95;;;;;;;;;;5054886;28;20041;-85
2024/03/09 08:35:09;;;;;;;9.10;6.28;;;;;;;;;;5054208;28;20049;-85
2024/03/09 08:37:47;;;;;;;8.05;5.95;;;;;;;;;;5055069;28;20436;-85
2024/03/09 08:40:30;;;;;;;8.50;6.20;;;;;;;;;;5069651;28;20401;-85
2024/03/09 08:42:58;;;;;;;7.82;5.97;;;;;;;;;;5070163;28;20076;-85
2024/03/09 08:45:32;;;;;;;7.82;6.57;;;;;;;;;;5053492;28;20053;-85
2024/03/09 08:48:00;;;;;;;8.25;6.65;;;;;;;;;;5053670;28;20052;-85
2024/03/09 08:50:27;;;;;;;8.02;6.60;;;;;;;;;;5053600;28;20049;-85
2024/03/09 08:52:59;;;;;;;7.22;6.53;;;;;;;;;;5053643;28;20045;-85
2024/03/09 08:55:27;;;;;;;7.55;6.00;;;;;;;;;;5053466;28;20049;-85
2024/03/09 08:57:57;;;;;;;7.60;6.00;;;;;;;;;;5054629;28;20045;-86
2024/03/09 09:00:24;;;;;;;6.90;6.18;;;;;;;;;;5053360;28;20076;-85
2024/03/09 09:02:57;;;;;;;7.25;5.82;;;;;;;;;;5053426;28;20083;-85
2024/03/09 09:05:26;;;;;;;7.07;6.38;;;;;;;;;;5054296;28;20060;-85
2024/03/09 09:07:55;;;;;;;7.13;5.72;;;;;;;;;;5054624;28;20418;-86
2024/03/09 09:10:25;;;;;;;6.72;6.03;;;;;;;;;;5069595;28;20060;-86
2024/03/09 09:12:54;;;;;;;5.53;5.03;;;;;;;;;;5068765;28;20106;-86
2024/03/09 09:15:24;;;;;;;6.22;5.20;;;;;;;;;;5054033;28;20110;-86
2024/03/09 09:17:55;;;;;;;7.50;5.80;;;;;;;;;;5069329;28;20053;-86
2024/03/09 09:20:23;;;;;;;5.85;5.35;;;;;;;;;;5069511;28;20084;-86
2024/03/09 09:22:53;;;;;;;8.30;5.22;;;;;;;;;;5053989;28;20084;-86
2024/03/09 09:25:25;;;;;;;5.90;5.10;;;;;;;;;;5069586;28;20110;-86
2024/03/09 09:27:59;;;;;;;6.63;5.93;;;;;;;;;;5069016;28;20482;-86
2024/03/09 09:30:27;;;;;;;6.63;5.95;;;;;;;;;;5053857;28;20417;-86
2024/03/09 09:32:56;;;;;;;5.38;4.88;;;;;;;;;;5052775;28;20045;-86
2024/03/09 09:35:24;;;;;;;7.95;6.22;;;;;;;;;;5053766;28;20045;-86
2024/03/09 09:37:57;;;;;;;5.97;5.45;;;;;;;;;;5052676;28;20052;-86
2024/03/09 09:40:26;;;;;;;6.43;5.82;;;;;;;;;;5053408;28;20068;-87
2024/03/09 09:42:53;;;;;;;7.45;5.97;;;;;;;;;;5069114;28;20053;-86
2024/03/09 09:45:21;;;;;;;5.75;5.07;;;;;;;;;;5053769;28;20052;-86
2024/03/09 09:47:49;;;;;;;6.30;5.60;;;;;;;;;;5068965;28;20135;-86
2024/03/09 09:50:20;;;;;;;5.82;5.15;;;;;;;;;;5069062;28;20500;-86
2024/03/09 09:52:51;;;;;;;5.30;4.70;;;;;;;;;;5069365;28;20131;-87
2024/03/09 09:55:19;;;;;;;5.43;4.93;;;;;;;;;;5069319;28;20501;-87
2024/03/09 09:57:47;;;;;;;6.20;4.97;;;;;;;;;;5069022;28;20057;-87
2024/03/09 10:00:16;;;;;;;5.57;5.07;;;;;;;;;;5069132;28;20103;-87
2024/03/09 10:02:45;;;;;;;5.40;4.78;;;;;;;;;;5053366;28;20044;-86
2024/03/09 10:05:15;;;;;;;5.72;4.90;;;;;;;;;;5053560;28;20102;-87
2024/03/09 10:08:03;;;;;;;4.38;4.03;;;;;;;;;;5053282;28;20110;-87
2024/03/09 10:10:31;;;;;;;4.57;4.10;;;;;;;;;;5053113;28;20049;-87
2024/03/09 10:13:09;;;;;;;4.18;3.88;;;;;;;;;;5061041;28;20045;-87
2024/03/09 10:15:38;;;;;;;4.25;3.95;;;;;;;;;;5052283;28;20075;-87
2024/03/09 10:18:06;;;;;;;4.50;4.10;;;;;;;;;;5068977;28;20041;-87
2024/03/09 10:20:35;;;;;;;3.75;3.47;;;;;;;;;;5068460;28;20417;-87
2024/03/09 10:23:08;;;;;;;3.60;3.35;;;;;;;;;;5052215;28;20048;-87
2024/03/09 10:25:36;;;;;;;4.05;3.70;;;;;;;;;;5068179;28;20391;-88
2024/03/09 10:28:05;;;;;;;3.35;3.15;;;;;;;;;;5068970;28;20040;-87
2024/03/09 10:30:32;;;;;;;3.90;3.50;;;;;;;;;;5052085;28;20052;-87
2024/03/09 10:33:00;;;;;;;5.00;3.50;;;;;;;;;;5060500;28;20456;-87
2024/03/09 10:35:27;;;;;;;3.33;3.13;;;;;;;;;;5069062;28;20137;-87
2024/03/09 10:37:55;;;;;;;4.22;3.90;;;;;;;;;;5068678;28;20154;-87
2024/03/09 10:40:23;;;;;;;4.25;3.90;;;;;;;;;;5052492;28;20092;-88
2024/03/09 10:42:52;;;;;;;4.30;4.00;;;;;;;;;;5068689;28;20080;-87
2024/03/09 10:45:20;;;;;;;5.47;4.40;;;;;;;;;;5053606;28;20465;-87
2024/03/09 10:47:53;;;;;;;5.15;3.58;;;;;;;;;;5068376;28;20052;-88
2024/03/09 10:50:24;;;;;;;4.53;4.05;;;;;;;;;;5053094;28;20049;-87
2024/03/09 10:53:09;;;;;;;3.88;3.58;;;;;;;;;;5053233;28;20072;-87
2024/03/09 10:55:44;;;;;;;5.30;3.88;;;;;;;;;;5052246;28;20049;-88
2024/03/09 10:58:15;;;;;;;5.22;4.07;;;;;;;;;;5068788;28;20084;-87
2024/03/09 11:00:49;;;;;;;3.72;3.50;;;;;;;;;;5068755;28;20130;-87
2024/03/09 11:03:20;;;;;;;4.80;3.40;;;;;;;;;;5053110;28;20045;-88
2024/03/09 11:05:55;;;;;;;4.03;3.65;;;;;;;;;;5052923;28;20086;-87
2024/03/09 11:08:22;;;;;;;3.80;3.50;;;;;;;;;;5052967;28;20075;-87
2024/03/09 11:10:50;;;;;;;4.63;4.22;;;;;;;;;;5053004;28;20061;-86
2024/03/09 11:13:18;;;;;;;4.32;4.00;;;;;;;;;;5052922;28;20045;-87
2024/03/09 11:15:50;;;;;;;5.07;4.60;;;;;;;;;;5052610;28;20497;-88
2024/03/09 11:18:19;;;;;;;10.57;7.82;;;;;;;;;;5068427;28;20087;-87
2024/03/09 11:20:52;;;;;;;4.68;4.22;;;;;;;;;;5052455;28;20052;-87
2024/03/09 11:23:23;;;;;;;5.28;3.97;;;;;;;;;;5068314;28;20053;-88
2024/03/09 11:25:51;;;;;;;4.28;3.88;;;;;;;;;;5051410;28;20057;-87
2024/03/09 11:28:22;;;;;;;4.28;3.88;;;;;;;;;;5052513;28;20482;-87
2024/03/09 11:30:59;;;;;;;4.85;4.22;;;;;;;;;;5068221;28;20103;-88
2024/03/09 11:33:30;;;;;;;4.20;3.80;;;;;;;;;;5068230;28;20060;-87
2024/03/09 11:35:58;;;;;;;5.05;4.65;;;;;;;;;;5068396;28;20068;-86
2024/03/09 11:38:27;;;;;;;5.05;4.50;;;;;;;;;;5071948;28;20130;-87
2024/03/09 11:40:55;;;;;;;4.75;4.35;;;;;;;;;;5071966;28;20386;-87
2024/03/09 11:43:22;;;;;;;5.80;4.13;;;;;;;;;;5056514;28;20081;-87
2024/03/09 11:45:49;;;;;;;5.20;4.70;;;;;;;;;;5055999;28;20053;-86
2024/03/09 11:48:17;;;;;;;5.25;4.85;;;;;;;;;;5055533;28;20464;-88
2024/03/09 11:50:45;;;;;;;4.57;4.18;;;;;;;;;;5071575;28;20481;-87
2024/03/09 11:53:12;;;;;;;4.78;4.20;;;;;;;;;;5071636;28;20049;-88
2024/03/09 11:55:39;;;;;;;4.55;4.15;;;;;;;;;;5071473;28;20060;-86
2024/03/09 11:58:10;;;;;;;4.55;4.15;;;;;;;;;;5056119;28;20059;-87
2024/03/09 12:00:37;;;;;;;4.57;4.18;;;;;;;;;;5054803;28;20555;-87
2024/03/09 12:03:15;;;;;;;4.72;4.32;;;;;;;;;;5071638;28;20144;-87
2024/03/09 12:05:43;;;;;;;5.13;4.68;;;;;;;;;;5071272;28;20044;-88
2024/03/09 12:08:11;;;;;;;5.47;4.97;;;;;;;;;;5071535;28;20253;-88
2024/03/09 12:10:39;;;;;;;4.80;4.40;;;;;;;;;;5055743;28;20083;-87
2024/03/09 12:13:07;;;;;;;4.80;4.30;;;;;;;;;;5071194;28;20045;-87
2024/03/09 12:15:34;;;;;;;6.53;4.40;;;;;;;;;;5071401;28;20053;-87
2024/03/09 12:18:09;;;;;;;4.80;4.28;;;;;;;;;;5070285;28;20067;-87
2024/03/09 12:20:36;;;;;;;4.70;4.30;;;;;;;;;;5071008;28;20094;-86
2024/03/09 12:23:10;;;;;;;4.80;4.30;;;;;;;;;;5071297;28;20045;-88
2024/03/09 12:25:38;;;;;;;4.47;4.03;;;;;;;;;;5071310;28;20056;-88
2024/03/09 12:28:06;;;;;;;4.93;4.53;;;;;;;;;;5070955;28;20045;-87
2024/03/09 12:30:34;;;;;;;4.85;4.00;;;;;;;;;;5070813;28;20053;-87
2024/03/09 12:33:02;;;;;;;4.15;3.78;;;;;;;;;;5063292;28;20084;-87
2024/03/09 12:35:33;;;;;;;4.85;4.45;;;;;;;;;;5055465;28;20049;-87
2024/03/09 12:38:14;;;;;;;5.10;4.20;;;;;;;;;;5063021;28;20458;-87
2024/03/09 12:40:44;;;;;;;6.65;4.22;;;;;;;;;;5070356;28;20132;-86
2024/03/09 12:43:13;;;;;;;4.78;4.07;;;;;;;;;;5070664;28;20045;-87
2024/03/09 12:45:44;;;;;;;4.45;4.00;;;;;;;;;;5054144;28;20144;-87
2024/03/09 12:48:11;;;;;;;4.60;4.20;;;;;;;;;;5070925;28;20075;-87
2024/03/09 12:50:38;;;;;;;5.55;4.90;;;;;;;;;;5054920;28;20045;-87
2024/03/09 12:53:07;;;;;;;4.18;3.78;;;;;;;;;;5070533;28;20056;-87
2024/03/09 12:55:35;;;;;;;4.63;4.20;;;;;;;;;;5054909;28;20053;-87
2024/03/09 12:58:05;;;;;;;4.55;4.15;;;;;;;;;;5070360;28;20060;-87
2024/03/09 13:00:33;;;;;;;5.53;3.90;;;;;;;;;;5069840;28;20390;-88
2024/03/09 13:03:00;;;;;;;4.13;3.72;;;;;;;;;;5062079;28;20508;-87
2024/03/09 13:05:31;;;;;;;4.20;3.80;;;;;;;;;;5070139;28;20091;-87
2024/03/09 13:07:59;;;;;;;4.82;4.40;;;;;;;;;;5069901;28;20053;-87
2024/03/09 13:10:30;;;;;;;4.40;4.00;;;;;;;;;;5054177;28;20053;-87
2024/03/09 13:12:58;;;;;;;4.63;4.22;;;;;;;;;;5054507;28;20052;-87
2024/03/09 13:15:25;;;;;;;4.45;4.13;;;;;;;;;;5054483;28;20048;-88
2024/03/09 13:17:56;;;;;;;4.72;4.32;;;;;;;;;;5054461;28;20045;-86
2024/03/09 13:20:31;;;;;;;7.05;3.90;;;;;;;;;;5054178;28;20049;-87
2024/03/09 13:23:00;;;;;;;4.45;4.05;;;;;;;;;;5054410;28;20041;-87
2024/03/09 13:25:29;;;;;;;4.15;3.75;;;;;;;;;;5070261;28;20080;-87
2024/03/09 13:27:56;;;;;;;5.03;4.50;;;;;;;;;;5069723;28;20501;-87
2024/03/09 13:30:26;;;;;;;4.63;4.22;;;;;;;;;;5069773;28;20102;-87
2024/03/09 13:32:55;;;;;;;4.40;3.88;;;;;;;;;;5069776;28;20052;-87
2024/03/09 13:35:23;;;;;;;4.25;3.95;;;;;;;;;;5054037;28;20045;-87
2024/03/09 13:37:50;;;;;;;3.97;3.58;;;;;;;;;;5069507;28;20056;-87
2024/03/09 13:40:25;;;;;;;3.92;3.50;;;;;;;;;;5052909;28;20048;-88
2024/03/09 13:42:56;;;;;;;5.05;3.92;;;;;;;;;;5054002;28;20507;-87
2024/03/09 13:45:24;;;;;;;3.72;3.35;;;;;;;;;;5069460;28;20046;-87
2024/03/09 13:47:52;;;;;;;4.50;3.45;;;;;;;;;;5052849;28;20060;-87
2024/03/09 13:50:28;;;;;;;3.63;3.33;;;;;;;;;;5053833;28;20123;-87
2024/03/09 13:52:55;;;;;;;5.32;4.10;;;;;;;;;;5053543;28;20052;-87
2024/03/09 13:55:28;;;;;;;3.80;3.45;;;;;;;;;;5053765;28;20139;-88
2024/03/09 13:57:55;;;;;;;3.70;3.40;;;;;;;;;;5049783;28;20049;-87
2024/03/09 14:00:27;;;;;;;4.20;3.53;;;;;;;;;;5051877;28;20049;-87
2024/03/09 14:02:59;;;;;;;4.60;4.15;;;;;;;;;;5069024;28;20144;-87
2024/03/09 14:05:27;;;;;;;4.38;3.97;;;;;;;;;;5069156;28;20057;-87
2024/03/09 14:07:58;;;;;;;4.35;3.95;;;;;;;;;;5068985;28;20525;-86
2024/03/09 14:10:34;;;;;;;4.55;3.90;;;;;;;;;;5053445;28;20409;-88
2024/03/09 14:13:01;;;;;;;4.47;4.07;;;;;;;;;;5069244;28;20057;-87
2024/03/09 14:15:32;;;;;;;3.70;3.40;;;;;;;;;;5053483;28;20049;-87
2024/03/09 14:18:00;;;;;;;3.92;3.58;;;;;;;;;;5045392;28;20106;-87
2024/03/09 14:20:27;;;;;;;4.22;3.90;;;;;;;;;;5052160;28;20132;-87
2024/03/09 14:22:54;;;;;;;4.93;4.03;;;;;;;;;;5068931;28;20088;-87
2024/03/09 14:25:29;;;;;;;4.38;3.97;;;;;;;;;;5053069;28;20057;-87
2024/03/09 14:27:56;;;;;;;4.22;3.92;;;;;;;;;;5069181;28;20080;-87
2024/03/09 14:30:26;;;;;;;6.70;4.25;;;;;;;;;;5068664;28;20382;-86
2024/03/09 14:32:57;;;;;;;4.22;3.80;;;;;;;;;;5068815;28;20086;-87
2024/03/09 14:35:32;;;;;;;4.43;4.03;;;;;;;;;;5052145;28;20045;-87
2024/03/09 14:38:00;;;;;;;3.63;3.33;;;;;;;;;;5051959;28;20049;-87
2024/03/09 14:40:34;;;;;;;4.00;3.38;;;;;;;;;;5044592;28;20048;-87
2024/03/09 14:43:03;;;;;;;3.95;3.65;;;;;;;;;;5060782;28;20048;-85